Morton S Bouchard Jr — WSE9678 — position and weather

sailwx.info

Track history (hours):
 
Tides and Currents Weather Stations Pressure Air Temp Water Temp Dewpoint Dewpoint Depression Visibility Wind Speed Wind Dir Waves Ship Positions

Morton S Bouchard Jr

Owner: BOUCHARD TRANSPORTATION CO INC, MELVILLE, NY. More information available from US FCC via Universal Licensing System and Coast Guard Vessel Documentation Center.

Last reported at 2015-May-19 14:14 UTC. Time now 2015-May-25 11:37 UTC.
Position N 38°29' W 074°30'.

Length 33 m; draft 6 m.

Type: Tug. MMSI: 367006550.

Date/timePositionNaut miles runAvg speedWind from/ knotsBaromVisibWave heightAir tempDewpointWater temp
2015-May-19 14:14N 38°29' W 074°30'7 7.0
2015-May-19 13:10N 38°36' W 074°28'4 6.9
2015-May-19 12:32N 38°41' W 074°27'7 6.8
2015-May-19 11:33N 38°47' W 074°26'7 6.8
2015-May-19 10:28N 38°55' W 074°24'7 6.9
2015-May-19 09:30N 39°01' W 074°21'7 6.8
2015-May-19 08:33N 39°07' W 074°18'7 6.9
2015-May-19 07:31N 39°14' W 074°14'7 7.0
2015-May-19 06:33N 39°20' W 074°11'8 6.9
2015-May-19 05:28N 39°27' W 074°08'6 6.9
2015-May-19 04:32N 39°33' W 074°05'7 6.9
2015-May-19 03:33N 39°39' W 074°01'7 6.8
2015-May-19 02:33N 39°45' W 073°58'7 6.6
2015-May-19 01:33N 39°52' W 073°57'6 6.4
2015-May-19 00:33N 39°58' W 073°55'6 6.0
2015-May-18 23:33N 40°04' W 073°54'7 6.1
2015-May-18 22:23N 40°11' W 073°53'5 5.5
2015-May-18 21:31N 40°16' W 073°52'4 3.5
2015-May-18 20:31N 40°19' W 073°52'4 3.4
2015-May-18 19:29N 40°23' W 073°54'4 4.0
2015-May-18 18:33N 40°26' W 073°54'5 4.7
2015-May-18 17:33N 40°30' W 073°58'5 5.1
2015-May-18 16:33N 40°34' W 074°02'4 3.8
2015-May-18 15:33N 40°38' W 074°03'6 5.9
2015-May-18 14:33N 40°39' W 074°11'4 3.9
2015-May-18 13:33N 40°35' W 074°13'0 0.1
2015-May-18 10:24N 40°35' W 074°12'0 0.0
2015-May-18 08:04N 40°35' W 074°12'0 0.0
2015-May-18 07:33N 40°35' W 074°12'0 0.1
2015-May-18 06:29N 40°35' W 074°12'2 2.6
2015-May-18 05:32N 40°33' W 074°14'0 0.0
2015-May-18 04:33N 40°33' W 074°14'0 0.0
2015-May-18 03:32N 40°33' W 074°14'2 2.2
2015-May-18 02:34N 40°35' W 074°13'0 0.0
2015-May-18 01:33N 40°35' W 074°13'0 0.0
2015-May-18 00:33N 40°35' W 074°13'0 0.0
2015-May-17 23:33N 40°35' W 074°13'3 2.5
2015-May-17 22:26N 40°33' W 074°15'0 0.0
2015-May-17 21:28N 40°33' W 074°15'4 4.7
2015-May-17 20:33N 40°37' W 074°12'4 4.3
2015-May-17 19:33N 40°39' W 074°07'0 0.0
2015-May-17 18:33N 40°39' W 074°07'0 0.0
2015-May-17 17:33N 40°39' W 074°07'0 0.0
2015-May-17 16:33N 40°38' W 074°07'0 0.0
2015-May-17 15:33N 40°38' W 074°07'0 0.0
2015-May-17 14:33N 40°38' W 074°07'0 0.0
2015-May-17 13:33N 40°38' W 074°07'0 0.0
2015-May-17 12:33N 40°38' W 074°07'0 0.0
2015-May-17 11:33N 40°39' W 074°07'0 0.0
2015-May-17 10:33N 40°39' W 074°07'0 0.0
2015-May-17 09:33N 40°38' W 074°07'4 4.3
2015-May-17 08:33N 40°37' W 074°12'4 4.4
2015-May-17 07:33N 40°33' W 074°15'0 0.1
2015-May-17 06:33N 40°33' W 074°15'1 1.0
2015-May-17 05:27N 40°33' W 074°14'4 5.0
2015-May-17 04:33N 40°38' W 074°12'4 4.2
2015-May-17 03:33N 40°39' W 074°07'5 5.2
2015-May-17 02:33N 40°41' W 074°01'7 6.9
2015-May-17 01:33N 40°47' W 073°55'7 6.5
2015-May-17 00:33N 40°48' W 073°47'7 7.2
2015-May-16 23:33N 40°54' W 073°42'4 3.7
2015-May-16 22:33N 40°57' W 073°38'5 5.1
2015-May-16 21:33N 40°59' W 073°32'0 0.4
2015-May-16 20:33N 40°59' W 073°33'4 3.9
2015-May-16 19:33N 41°00' W 073°28'6 5.6
2015-May-16 18:33N 41°03' W 073°21'2 2.0
2015-May-16 17:33N 41°02' W 073°23'7 7.1
2015-May-16 16:33N 40°59' W 073°32'3 2.8
2015-May-16 15:30N 40°58' W 073°36'6 6.6
2015-May-16 14:33N 40°59' W 073°28'5 5.4
2015-May-16 13:33N 41°01' W 073°21'6 5.7
2015-May-16 12:33N 41°03' W 073°14'6 6.4
2015-May-16 11:33N 41°06' W 073°06'6 6.0
2015-May-16 10:33N 41°09' W 072°60'6 5.5
2015-May-16 09:33N 41°13' W 072°54'5 4.6
2015-May-16 08:33N 41°18' W 072°54'0 0.0
2015-May-16 07:33N 41°18' W 072°54'0 0.0
2015-May-16 06:32N 41°18' W 072°54'0 0.0
2015-May-16 05:32N 41°18' W 072°54'0 0.0
2015-May-16 04:33N 41°18' W 072°54'0 0.0
2015-May-16 03:33N 41°18' W 072°54'0 0.0
2015-May-16 02:33N 41°18' W 072°54'0 0.0
2015-May-16 01:33N 41°18' W 072°54'0 0.0
2015-May-16 00:33N 41°18' W 072°54'0 0.0
2015-May-15 23:33N 41°18' W 072°54'0 0.0
2015-May-15 22:33N 41°18' W 072°54'0 0.0
2015-May-15 21:33N 41°18' W 072°54'0 0.0
2015-May-15 20:33N 41°18' W 072°54'0 0.0
2015-May-15 19:33N 41°18' W 072°54'0 0.0
2015-May-15 18:33N 41°18' W 072°54'0 0.0
2015-May-15 17:31N 41°18' W 072°54'0 0.0
2015-May-15 16:33N 41°18' W 072°54'0 0.0
2015-May-15 15:33N 41°18' W 072°54'0 0.0
2015-May-15 14:33N 41°18' W 072°54'0 0.0
2015-May-15 13:33N 41°18' W 072°54'0 0.0
2015-May-15 12:33N 41°18' W 072°54'0 0.0
2015-May-15 11:33N 41°18' W 072°54'0 0.0
2015-May-15 10:33N 41°18' W 072°54'0 0.0
2015-May-15 09:33N 41°18' W 072°54'0 0.0
2015-May-15 08:33N 41°18' W 072°54'0 0.1
2015-May-15 07:33N 41°18' W 072°54'5 4.6
2015-May-15 06:33N 41°13' W 072°54'7 7.0
2015-May-15 05:33N 41°08' W 073°00'9 8.9
2015-May-15 04:33N 41°04' W 073°11'9 8.8
2015-May-15 03:33N 41°01' W 073°22'9 8.6
2015-May-15 02:33N 40°57' W 073°32'8 8.1
2015-May-15 01:34N 40°54' W 073°42'7 7.0
2015-May-15 00:33N 40°48' W 073°48'6 6.3
2015-May-14 23:33N 40°47' W 073°56'5 5.4
2015-May-14 22:33N 40°42' W 073°60'4 4.4
2015-May-14 21:33N 40°39' W 074°03'6 6.3
2015-May-14 20:33N 40°38' W 074°12'3 2.9
2015-May-14 19:34N 40°35' W 074°12'2 0.8
2015-May-14 16:27N 40°34' W 074°14'0 0.0
2015-May-14 15:27N 40°34' W 074°14'4 3.1
2015-May-14 14:09N 40°37' W 074°12'5 8.4
2015-May-14 13:32N 40°39' W 074°06'3 3.2
2015-May-14 12:33N 40°40' W 074°02'9 9.1
2015-May-14 11:31N 40°48' W 073°55'6 6.3
2015-May-14 10:33N 40°49' W 073°47'0 0.3
2015-May-14 09:33N 40°49' W 073°47'0 0.1
2015-May-14 08:32N 40°49' W 073°46'0 0.0
2015-May-14 07:24N 40°49' W 073°46'3 3.6
2015-May-14 06:30N 40°48' W 073°51'7 7.8
2015-May-14 05:33N 40°43' W 073°58'5 4.6
2015-May-14 04:33N 40°40' W 074°02'0 0.0
2015-May-14 03:33N 40°40' W 074°02'0 0.0
2015-May-14 02:33N 40°40' W 074°02'3 3.1
2015-May-14 01:33N 40°39' W 074°06'5 4.9
2015-May-14 00:33N 40°37' W 074°12'3 1.2
2015-May-13 22:26N 40°35' W 074°13'6 6.4
2015-May-13 21:33N 40°39' W 074°07'2 1.8
2015-May-13 20:34N 40°39' W 074°09'4 2.9
2015-May-13 19:11N 40°35' W 074°12'3 5.4
2015-May-13 18:33N 40°39' W 074°11'6 5.6
2015-May-13 17:33N 40°39' W 074°04'8 7.5
2015-May-13 16:33N 40°45' W 073°58'8 8.1
2015-May-13 15:33N 40°48' W 073°48'9 7.3
2015-May-13 14:21N 40°54' W 073°40'11 5.0
2015-May-13 12:09N 40°59' W 073°27'10 5.7
2015-May-13 10:28N 40°56' W 073°39'20 6.8
2015-May-13 07:33N 41°01' W 073°14'7 7.4
2015-May-13 06:33N 41°02' W 073°04'7 7.4
2015-May-13 05:33N 41°03' W 072°54'7 7.4
2015-May-13 04:33N 41°05' W 072°45'8 7.7
2015-May-13 03:33N 41°07' W 072°35'7 7.1
2015-May-13 02:33N 41°09' W 072°26'6 5.9
2015-May-13 01:33N 41°11' W 072°19'6 6.2
2015-May-13 00:33N 41°14' W 072°11'8 8.0
2015-May-12 23:33N 41°14' W 072°01'8 7.6
2015-May-12 22:33N 41°15' W 071°51'8 7.5
2015-May-12 21:33N 41°17' W 071°41'8 7.9
2015-May-12 20:33N 41°18' W 071°30'7 7.5
2015-May-12 19:33N 41°18' W 071°21'7 6.6
2015-May-12 18:33N 41°21' W 071°12'7 6.7
2015-May-12 17:33N 41°24' W 071°05'7 6.8
2015-May-12 16:33N 41°28' W 070°57'9 8.9
2015-May-12 15:33N 41°32' W 070°47'8 7.7
2015-May-12 14:29N 41°40' W 070°41'13 1.6
2015-May-12 06:17N 41°47' W 070°27'0 0.0
2015-May-12 05:33N 41°47' W 070°27'0 0.0
2015-May-12 04:33N 41°47' W 070°27'0 0.0
2015-May-12 03:33N 41°47' W 070°27'0 0.0
2015-May-12 02:33N 41°47' W 070°27'0 0.0
2015-May-12 01:33N 41°47' W 070°27'8 5.4
2015-May-12 00:05N 41°54' W 070°29'33 9.3
2015-May-11 20:30N 42°23' W 070°50'7 5.2
2015-May-11 19:14N 42°20' W 070°58'1 0.0
2015-May-10 21:05N 42°20' W 070°57'4 7.3
2015-May-10 20:29N 42°23' W 070°53'10 7.1
2015-May-10 19:04N 42°17' W 070°42'5 7.8
2015-May-10 18:28N 42°13' W 070°39'22 7.6
2015-May-10 15:31N 41°52' W 070°28'14 7.3
2015-May-10 13:33N 41°41' W 070°41'7 7.4
2015-May-10 12:33N 41°34' W 070°45'3 3.2
2015-May-10 11:33N 41°32' W 070°48'6 6.2
2015-May-10 10:32N 41°29' W 070°55'6 6.2
2015-May-10 09:33N 41°25' W 071°02'7 6.6
2015-May-10 08:33N 41°23' W 071°10'7 6.8
2015-May-10 07:33N 41°21' W 071°19'6 5.8
2015-May-10 06:33N 41°18' W 071°26'6 5.8
2015-May-10 05:33N 41°18' W 071°33'6 6.0
2015-May-10 04:33N 41°17' W 071°41'6 5.9
2015-May-10 03:33N 41°16' W 071°49'6 6.0
2015-May-10 02:33N 41°15' W 071°57'7 6.8
2015-May-10 01:33N 41°14' W 072°06'8 7.6
2015-May-10 00:33N 41°13' W 072°15'8 8.5
2015-May-09 23:33N 41°10' W 072°26'9 8.6
2015-May-09 22:33N 41°07' W 072°37'8 7.7
2015-May-09 21:33N 41°05' W 072°47'7 7.3
2015-May-09 20:33N 41°04' W 072°56'7 7.0
2015-May-09 19:33N 41°02' W 073°05'7 6.8
2015-May-09 18:33N 41°01' W 073°14'7 6.6
2015-May-09 17:33N 41°01' W 073°23'6 6.3
2015-May-09 16:33N 40°58' W 073°30'6 6.4
2015-May-09 15:33N 40°55' W 073°38'4 3.6
2015-May-09 14:33N 40°54' W 073°42'  
Track history (hours):
 
Tides and Currents Weather Stations Pressure Air Temp Water Temp Dewpoint Dewpoint Depression Visibility Wind Speed Wind Dir Waves Ship Positions

Morton S Bouchard Jr

Owner: BOUCHARD TRANSPORTATION CO INC, MELVILLE, NY. More information available from US FCC via Universal Licensing System and Coast Guard Vessel Documentation Center.

Last reported at 2015-May-19 14:14 UTC. Time now 2015-May-25 11:37 UTC.
Position N 38°29' W 074°30'.

Length 33 m; draft 6 m.

Type: Tug. MMSI: 367006550.

Date/timePositionNaut miles runAvg speedWind from/ knotsBaromVisibWave heightAir tempDewpointWater temp
2015-May-19 14:14N 38°29' W 074°30'7 7.0
2015-May-19 13:10N 38°36' W 074°28'4 6.9
2015-May-19 12:32N 38°41' W 074°27'7 6.8
2015-May-19 11:33N 38°47' W 074°26'7 6.8
2015-May-19 10:28N 38°55' W 074°24'7 6.9
2015-May-19 09:30N 39°01' W 074°21'7 6.8
2015-May-19 08:33N 39°07' W 074°18'7 6.9
2015-May-19 07:31N 39°14' W 074°14'7 7.0
2015-May-19 06:33N 39°20' W 074°11'8 6.9
2015-May-19 05:28N 39°27' W 074°08'6 6.9
2015-May-19 04:32N 39°33' W 074°05'7 6.9
2015-May-19 03:33N 39°39' W 074°01'7 6.8
2015-May-19 02:33N 39°45' W 073°58'7 6.6
2015-May-19 01:33N 39°52' W 073°57'6 6.4
2015-May-19 00:33N 39°58' W 073°55'6 6.0
2015-May-18 23:33N 40°04' W 073°54'7 6.1
2015-May-18 22:23N 40°11' W 073°53'5 5.5
2015-May-18 21:31N 40°16' W 073°52'4 3.5
2015-May-18 20:31N 40°19' W 073°52'4 3.4
2015-May-18 19:29N 40°23' W 073°54'4 4.0
2015-May-18 18:33N 40°26' W 073°54'5 4.7
2015-May-18 17:33N 40°30' W 073°58'5 5.1
2015-May-18 16:33N 40°34' W 074°02'4 3.8
2015-May-18 15:33N 40°38' W 074°03'6 5.9
2015-May-18 14:33N 40°39' W 074°11'4 3.9
2015-May-18 13:33N 40°35' W 074°13'0 0.1
2015-May-18 10:24N 40°35' W 074°12'0 0.0
2015-May-18 08:04N 40°35' W 074°12'0 0.0
2015-May-18 07:33N 40°35' W 074°12'0 0.1
2015-May-18 06:29N 40°35' W 074°12'2 2.6
2015-May-18 05:32N 40°33' W 074°14'0 0.0
2015-May-18 04:33N 40°33' W 074°14'0 0.0
2015-May-18 03:32N 40°33' W 074°14'2 2.2
2015-May-18 02:34N 40°35' W 074°13'0 0.0
2015-May-18 01:33N 40°35' W 074°13'0 0.0
2015-May-18 00:33N 40°35' W 074°13'0 0.0
2015-May-17 23:33N 40°35' W 074°13'3 2.5
2015-May-17 22:26N 40°33' W 074°15'0 0.0
2015-May-17 21:28N 40°33' W 074°15'4 4.7
2015-May-17 20:33N 40°37' W 074°12'4 4.3
2015-May-17 19:33N 40°39' W 074°07'0 0.0
2015-May-17 18:33N 40°39' W 074°07'0 0.0
2015-May-17 17:33N 40°39' W 074°07'0 0.0
2015-May-17 16:33N 40°38' W 074°07'0 0.0
2015-May-17 15:33N 40°38' W 074°07'0 0.0
2015-May-17 14:33N 40°38' W 074°07'0 0.0
2015-May-17 13:33N 40°38' W 074°07'0 0.0
2015-May-17 12:33N 40°38' W 074°07'0 0.0
2015-May-17 11:33N 40°39' W 074°07'0 0.0
2015-May-17 10:33N 40°39' W 074°07'0 0.0
2015-May-17 09:33N 40°38' W 074°07'4 4.3
2015-May-17 08:33N 40°37' W 074°12'4 4.4
2015-May-17 07:33N 40°33' W 074°15'0 0.1
2015-May-17 06:33N 40°33' W 074°15'1 1.0
2015-May-17 05:27N 40°33' W 074°14'4 5.0
2015-May-17 04:33N 40°38' W 074°12'4 4.2
2015-May-17 03:33N 40°39' W 074°07'5 5.2
2015-May-17 02:33N 40°41' W 074°01'7 6.9
2015-May-17 01:33N 40°47' W 073°55'7 6.5
2015-May-17 00:33N 40°48' W 073°47'7 7.2
2015-May-16 23:33N 40°54' W 073°42'4 3.7
2015-May-16 22:33N 40°57' W 073°38'5 5.1
2015-May-16 21:33N 40°59' W 073°32'0 0.4
2015-May-16 20:33N 40°59' W 073°33'4 3.9
2015-May-16 19:33N 41°00' W 073°28'6 5.6
2015-May-16 18:33N 41°03' W 073°21'2 2.0
2015-May-16 17:33N 41°02' W 073°23'7 7.1
2015-May-16 16:33N 40°59' W 073°32'3 2.8
2015-May-16 15:30N 40°58' W 073°36'6 6.6
2015-May-16 14:33N 40°59' W 073°28'5 5.4
2015-May-16 13:33N 41°01' W 073°21'6 5.7
2015-May-16 12:33N 41°03' W 073°14'6 6.4
2015-May-16 11:33N 41°06' W 073°06'6 6.0
2015-May-16 10:33N 41°09' W 072°60'6 5.5
2015-May-16 09:33N 41°13' W 072°54'5 4.6
2015-May-16 08:33N 41°18' W 072°54'0 0.0
2015-May-16 07:33N 41°18' W 072°54'0 0.0
2015-May-16 06:32N 41°18' W 072°54'0 0.0
2015-May-16 05:32N 41°18' W 072°54'0 0.0
2015-May-16 04:33N 41°18' W 072°54'0 0.0
2015-May-16 03:33N 41°18' W 072°54'0 0.0
2015-May-16 02:33N 41°18' W 072°54'0 0.0
2015-May-16 01:33N 41°18' W 072°54'0 0.0
2015-May-16 00:33N 41°18' W 072°54'0 0.0
2015-May-15 23:33N 41°18' W 072°54'0 0.0
2015-May-15 22:33N 41°18' W 072°54'0 0.0
2015-May-15 21:33N 41°18' W 072°54'0 0.0
2015-May-15 20:33N 41°18' W 072°54'0 0.0
2015-May-15 19:33N 41°18' W 072°54'0 0.0
2015-May-15 18:33N 41°18' W 072°54'0 0.0
2015-May-15 17:31N 41°18' W 072°54'0 0.0
2015-May-15 16:33N 41°18' W 072°54'0 0.0
2015-May-15 15:33N 41°18' W 072°54'0 0.0
2015-May-15 14:33N 41°18' W 072°54'0 0.0
2015-May-15 13:33N 41°18' W 072°54'0 0.0
2015-May-15 12:33N 41°18' W 072°54'0 0.0
2015-May-15 11:33N 41°18' W 072°54'0 0.0
2015-May-15 10:33N 41°18' W 072°54'0 0.0
2015-May-15 09:33N 41°18' W 072°54'0 0.0
2015-May-15 08:33N 41°18' W 072°54'0 0.1
2015-May-15 07:33N 41°18' W 072°54'5 4.6
2015-May-15 06:33N 41°13' W 072°54'7 7.0
2015-May-15 05:33N 41°08' W 073°00'9 8.9
2015-May-15 04:33N 41°04' W 073°11'9 8.8
2015-May-15 03:33N 41°01' W 073°22'9 8.6
2015-May-15 02:33N 40°57' W 073°32'8 8.1
2015-May-15 01:34N 40°54' W 073°42'7 7.0
2015-May-15 00:33N 40°48' W 073°48'6 6.3
2015-May-14 23:33N 40°47' W 073°56'5 5.4
2015-May-14 22:33N 40°42' W 073°60'4 4.4
2015-May-14 21:33N 40°39' W 074°03'6 6.3
2015-May-14 20:33N 40°38' W 074°12'3 2.9
2015-May-14 19:34N 40°35' W 074°12'2 0.8
2015-May-14 16:27N 40°34' W 074°14'0 0.0
2015-May-14 15:27N 40°34' W 074°14'4 3.1
2015-May-14 14:09N 40°37' W 074°12'5 8.4
2015-May-14 13:32N 40°39' W 074°06'3 3.2
2015-May-14 12:33N 40°40' W 074°02'9 9.1
2015-May-14 11:31N 40°48' W 073°55'6 6.3
2015-May-14 10:33N 40°49' W 073°47'0 0.3
2015-May-14 09:33N 40°49' W 073°47'0 0.1
2015-May-14 08:32N 40°49' W 073°46'0 0.0
2015-May-14 07:24N 40°49' W 073°46'3 3.6
2015-May-14 06:30N 40°48' W 073°51'7 7.8
2015-May-14 05:33N 40°43' W 073°58'5 4.6
2015-May-14 04:33N 40°40' W 074°02'0 0.0
2015-May-14 03:33N 40°40' W 074°02'0 0.0
2015-May-14 02:33N 40°40' W 074°02'3 3.1
2015-May-14 01:33N 40°39' W 074°06'5 4.9
2015-May-14 00:33N 40°37' W 074°12'3 1.2
2015-May-13 22:26N 40°35' W 074°13'6 6.4
2015-May-13 21:33N 40°39' W 074°07'2 1.8
2015-May-13 20:34N 40°39' W 074°09'4 2.9
2015-May-13 19:11N 40°35' W 074°12'3 5.4
2015-May-13 18:33N 40°39' W 074°11'6 5.6
2015-May-13 17:33N 40°39' W 074°04'8 7.5
2015-May-13 16:33N 40°45' W 073°58'8 8.1
2015-May-13 15:33N 40°48' W 073°48'9 7.3
2015-May-13 14:21N 40°54' W 073°40'11 5.0
2015-May-13 12:09N 40°59' W 073°27'10 5.7
2015-May-13 10:28N 40°56' W 073°39'20 6.8
2015-May-13 07:33N 41°01' W 073°14'7 7.4
2015-May-13 06:33N 41°02' W 073°04'7 7.4
2015-May-13 05:33N 41°03' W 072°54'7 7.4
2015-May-13 04:33N 41°05' W 072°45'8 7.7
2015-May-13 03:33N 41°07' W 072°35'7 7.1
2015-May-13 02:33N 41°09' W 072°26'6 5.9
2015-May-13 01:33N 41°11' W 072°19'6 6.2
2015-May-13 00:33N 41°14' W 072°11'8 8.0
2015-May-12 23:33N 41°14' W 072°01'8 7.6
2015-May-12 22:33N 41°15' W 071°51'8 7.5
2015-May-12 21:33N 41°17' W 071°41'8 7.9
2015-May-12 20:33N 41°18' W 071°30'7 7.5
2015-May-12 19:33N 41°18' W 071°21'7 6.6
2015-May-12 18:33N 41°21' W 071°12'7 6.7
2015-May-12 17:33N 41°24' W 071°05'7 6.8
2015-May-12 16:33N 41°28' W 070°57'9 8.9
2015-May-12 15:33N 41°32' W 070°47'8 7.7
2015-May-12 14:29N 41°40' W 070°41'13 1.6
2015-May-12 06:17N 41°47' W 070°27'0 0.0
2015-May-12 05:33N 41°47' W 070°27'0 0.0
2015-May-12 04:33N 41°47' W 070°27'0 0.0
2015-May-12 03:33N 41°47' W 070°27'0 0.0
2015-May-12 02:33N 41°47' W 070°27'0 0.0
2015-May-12 01:33N 41°47' W 070°27'8 5.4
2015-May-12 00:05N 41°54' W 070°29'33 9.3
2015-May-11 20:30N 42°23' W 070°50'7 5.2
2015-May-11 19:14N 42°20' W 070°58'1 0.0
2015-May-10 21:05N 42°20' W 070°57'4 7.3
2015-May-10 20:29N 42°23' W 070°53'10 7.1
2015-May-10 19:04N 42°17' W 070°42'5 7.8
2015-May-10 18:28N 42°13' W 070°39'22 7.6
2015-May-10 15:31N 41°52' W 070°28'14 7.3
2015-May-10 13:33N 41°41' W 070°41'7 7.4
2015-May-10 12:33N 41°34' W 070°45'3 3.2
2015-May-10 11:33N 41°32' W 070°48'6 6.2
2015-May-10 10:32N 41°29' W 070°55'6 6.2
2015-May-10 09:33N 41°25' W 071°02'7 6.6
2015-May-10 08:33N 41°23' W 071°10'7 6.8
2015-May-10 07:33N 41°21' W 071°19'6 5.8
2015-May-10 06:33N 41°18' W 071°26'6 5.8
2015-May-10 05:33N 41°18' W 071°33'6 6.0
2015-May-10 04:33N 41°17' W 071°41'6 5.9
2015-May-10 03:33N 41°16' W 071°49'6 6.0
2015-May-10 02:33N 41°15' W 071°57'7 6.8
2015-May-10 01:33N 41°14' W 072°06'8 7.6
2015-May-10 00:33N 41°13' W 072°15'8 8.5
2015-May-09 23:33N 41°10' W 072°26'9 8.6
2015-May-09 22:33N 41°07' W 072°37'8 7.7
2015-May-09 21:33N 41°05' W 072°47'7 7.3
2015-May-09 20:33N 41°04' W 072°56'7 7.0
2015-May-09 19:33N 41°02' W 073°05'7 6.8
2015-May-09 18:33N 41°01' W 073°14'7 6.6
2015-May-09 17:33N 41°01' W 073°23'6 6.3
2015-May-09 16:33N 40°58' W 073°30'6 6.4
2015-May-09 15:33N 40°55' W 073°38'4 3.6
2015-May-09 14:33N 40°54' W 073°42'  

Dump ship's entire track history